sensor_id;sensor_type;location;lat;lon;timestamp;P1;durP1;ratioP1;P2;durP2;ratioP2
1382;SDS011;685;47.196;11.880;2023-02-27T00:02:20;3.80;;;2.50;;
1382;SDS011;685;47.196;11.880;2023-02-27T00:04:47;2.37;;;2.17;;
1382;SDS011;685;47.196;11.880;2023-02-27T00:07:15;2.63;;;1.90;;
1382;SDS011;685;47.196;11.880;2023-02-27T00:09:42;3.07;;;1.90;;
1382;SDS011;685;47.196;11.880;2023-02-27T00:12:09;1.90;;;1.77;;
1382;SDS011;685;47.196;11.880;2023-02-27T00:14:37;2.20;;;2.00;;
1382;SDS011;685;47.196;11.880;2023-02-27T00:17:03;2.47;;;2.27;;
1382;SDS011;685;47.196;11.880;2023-02-27T00:19:30;3.13;;;1.90;;
1382;SDS011;685;47.196;11.880;2023-02-27T00:21:57;2.00;;;1.87;;
1382;SDS011;685;47.196;11.880;2023-02-27T00:24:26;2.60;;;2.10;;
1382;SDS011;685;47.196;11.880;2023-02-27T00:26:52;2.20;;;2.00;;
1382;SDS011;685;47.196;11.880;2023-02-27T00:29:19;2.73;;;2.53;;
1382;SDS011;685;47.196;11.880;2023-02-27T00:31:46;4.70;;;2.00;;
1382;SDS011;685;47.196;11.880;2023-02-27T00:34:13;2.83;;;2.40;;
1382;SDS011;685;47.196;11.880;2023-02-27T00:36:40;2.30;;;2.10;;
1382;SDS011;685;47.196;11.880;2023-02-27T00:39:07;3.07;;;2.33;;
1382;SDS011;685;47.196;11.880;2023-02-27T00:41:35;2.27;;;2.00;;
1382;SDS011;685;47.196;11.880;2023-02-27T00:44:02;2.17;;;2.00;;
1382;SDS011;685;47.196;11.880;2023-02-27T00:46:29;2.30;;;2.10;;
1382;SDS011;685;47.196;11.880;2023-02-27T00:48:56;2.83;;;2.27;;
1382;SDS011;685;47.196;11.880;2023-02-27T00:51:23;2.57;;;2.27;;
1382;SDS011;685;47.196;11.880;2023-02-27T00:53:51;5.53;;;2.10;;
1382;SDS011;685;47.196;11.880;2023-02-27T00:56:17;2.20;;;1.83;;
1382;SDS011;685;47.196;11.880;2023-02-27T00:58:46;2.30;;;1.87;;
1382;SDS011;685;47.196;11.880;2023-02-27T01:01:13;2.40;;;2.00;;
1382;SDS011;685;47.196;11.880;2023-02-27T01:03:40;2.20;;;1.97;;
1382;SDS011;685;47.196;11.880;2023-02-27T01:06:07;2.30;;;2.07;;
1382;SDS011;685;47.196;11.880;2023-02-27T01:08:34;1.73;;;1.63;;
1382;SDS011;685;47.196;11.880;2023-02-27T01:11:01;2.33;;;2.13;;
1382;SDS011;685;47.196;11.880;2023-02-27T01:13:27;1.70;;;1.60;;
1382;SDS011;685;47.196;11.880;2023-02-27T01:15:56;2.50;;;2.30;;
1382;SDS011;685;47.196;11.880;2023-02-27T01:18:23;2.57;;;2.00;;
1382;SDS011;685;47.196;11.880;2023-02-27T01:20:50;2.40;;;2.13;;
1382;SDS011;685;47.196;11.880;2023-02-27T01:23:18;2.23;;;2.03;;
1382;SDS011;685;47.196;11.880;2023-02-27T01:25:45;2.30;;;2.10;;
1382;SDS011;685;47.196;11.880;2023-02-27T01:28:12;2.70;;;2.50;;
1382;SDS011;685;47.196;11.880;2023-02-27T01:30:40;2.60;;;2.40;;
1382;SDS011;685;47.196;11.880;2023-02-27T01:33:08;2.03;;;1.83;;
1382;SDS011;685;47.196;11.880;2023-02-27T01:35:35;3.40;;;2.27;;
1382;SDS011;685;47.196;11.880;2023-02-27T01:38:02;2.20;;;2.00;;
1382;SDS011;685;47.196;11.880;2023-02-27T01:40:29;2.80;;;2.60;;
1382;SDS011;685;47.196;11.880;2023-02-27T01:43:00;3.13;;;2.57;;
1382;SDS011;685;47.196;11.880;2023-02-27T01:45:30;2.33;;;2.10;;
1382;SDS011;685;47.196;11.880;2023-02-27T01:48:03;2.50;;;1.77;;
1382;SDS011;685;47.196;11.880;2023-02-27T01:50:36;2.23;;;2.03;;
1382;SDS011;685;47.196;11.880;2023-02-27T01:53:06;3.53;;;2.40;;
1382;SDS011;685;47.196;11.880;2023-02-27T01:55:34;2.33;;;2.13;;
1382;SDS011;685;47.196;11.880;2023-02-27T01:58:04;2.40;;;1.93;;
1382;SDS011;685;47.196;11.880;2023-02-27T02:00:32;2.97;;;2.57;;
1382;SDS011;685;47.196;11.880;2023-02-27T02:03:00;2.30;;;2.10;;
1382;SDS011;685;47.196;11.880;2023-02-27T02:05:33;2.40;;;2.07;;
1382;SDS011;685;47.196;11.880;2023-02-27T02:08:02;2.60;;;2.30;;
1382;SDS011;685;47.196;11.880;2023-02-27T02:10:29;2.73;;;2.40;;
1382;SDS011;685;47.196;11.880;2023-02-27T02:12:57;2.80;;;2.60;;
1382;SDS011;685;47.196;11.880;2023-02-27T02:15:27;2.77;;;2.13;;
1382;SDS011;685;47.196;11.880;2023-02-27T02:17:59;2.33;;;2.10;;
1382;SDS011;685;47.196;11.880;2023-02-27T02:20:43;2.87;;;2.00;;
1382;SDS011;685;47.196;11.880;2023-02-27T02:23:49;2.30;;;2.07;;
1382;SDS011;685;47.196;11.880;2023-02-27T02:26:43;2.90;;;2.30;;
1382;SDS011;685;47.196;11.880;2023-02-27T02:32:38;2.40;;;2.20;;
1382;SDS011;685;47.196;11.880;2023-02-27T02:35:31;2.73;;;2.53;;
1382;SDS011;685;47.196;11.880;2023-02-27T02:38:40;3.33;;;3.10;;
1382;SDS011;685;47.196;11.880;2023-02-27T02:41:21;3.20;;;2.47;;
1382;SDS011;685;47.196;11.880;2023-02-27T02:43:58;4.20;;;2.87;;
1382;SDS011;685;47.196;11.880;2023-02-27T02:46:30;3.37;;;2.73;;
1382;SDS011;685;47.196;11.880;2023-02-27T02:49:09;4.10;;;2.80;;
1382;SDS011;685;47.196;11.880;2023-02-27T02:51:43;2.80;;;2.50;;
1382;SDS011;685;47.196;11.880;2023-02-27T02:54:18;3.10;;;2.77;;
1382;SDS011;685;47.196;11.880;2023-02-27T02:56:50;3.27;;;2.50;;
1382;SDS011;685;47.196;11.880;2023-02-27T02:59:27;3.27;;;2.10;;
1382;SDS011;685;47.196;11.880;2023-02-27T03:01:58;2.90;;;2.50;;
1382;SDS011;685;47.196;11.880;2023-02-27T03:04:30;3.53;;;2.73;;
1382;SDS011;685;47.196;11.880;2023-02-27T03:07:04;2.57;;;2.27;;
1382;SDS011;685;47.196;11.880;2023-02-27T03:09:36;2.47;;;2.20;;
1382;SDS011;685;47.196;11.880;2023-02-27T03:12:08;3.37;;;2.80;;
1382;SDS011;685;47.196;11.880;2023-02-27T03:14:38;2.60;;;2.37;;
1382;SDS011;685;47.196;11.880;2023-02-27T03:17:14;3.10;;;2.50;;
1382;SDS011;685;47.196;11.880;2023-02-27T03:19:47;2.80;;;2.60;;
1382;SDS011;685;47.196;11.880;2023-02-27T03:22:20;3.10;;;2.80;;
1382;SDS011;685;47.196;11.880;2023-02-27T03:24:52;4.37;;;3.47;;
1382;SDS011;685;47.196;11.880;2023-02-27T03:27:22;4.17;;;2.70;;
1382;SDS011;685;47.196;11.880;2023-02-27T03:29:54;2.67;;;2.47;;
1382;SDS011;685;47.196;11.880;2023-02-27T03:32:28;2.77;;;2.53;;
1382;SDS011;685;47.196;11.880;2023-02-27T03:35:01;2.80;;;2.50;;
1382;SDS011;685;47.196;11.880;2023-02-27T03:37:29;5.97;;;4.30;;
1382;SDS011;685;47.196;11.880;2023-02-27T03:40:08;3.30;;;2.93;;
1382;SDS011;685;47.196;11.880;2023-02-27T03:42:44;2.97;;;2.67;;
1382;SDS011;685;47.196;11.880;2023-02-27T03:45:16;3.10;;;2.80;;
1382;SDS011;685;47.196;11.880;2023-02-27T03:47:47;3.03;;;2.70;;
1382;SDS011;685;47.196;11.880;2023-02-27T03:50:14;2.60;;;2.23;;
1382;SDS011;685;47.196;11.880;2023-02-27T03:52:42;2.93;;;2.70;;
1382;SDS011;685;47.196;11.880;2023-02-27T03:55:12;2.40;;;2.20;;
1382;SDS011;685;47.196;11.880;2023-02-27T03:57:41;3.20;;;2.90;;
1382;SDS011;685;47.196;11.880;2023-02-27T04:00:11;3.37;;;2.97;;
1382;SDS011;685;47.196;11.880;2023-02-27T04:02:41;3.63;;;3.30;;
1382;SDS011;685;47.196;11.880;2023-02-27T04:05:10;3.20;;;2.43;;
1382;SDS011;685;47.196;11.880;2023-02-27T04:07:39;3.63;;;3.33;;
1382;SDS011;685;47.196;11.880;2023-02-27T04:10:31;3.63;;;3.10;;
1382;SDS011;685;47.196;11.880;2023-02-27T04:13:21;5.20;;;3.27;;
1382;SDS011;685;47.196;11.880;2023-02-27T04:16:04;2.93;;;2.73;;
1382;SDS011;685;47.196;11.880;2023-02-27T04:18:48;3.20;;;2.63;;
1382;SDS011;685;47.196;11.880;2023-02-27T04:21:26;3.13;;;2.60;;
1382;SDS011;685;47.196;11.880;2023-02-27T04:24:03;3.17;;;2.73;;
1382;SDS011;685;47.196;11.880;2023-02-27T04:26:41;3.90;;;3.10;;
1382;SDS011;685;47.196;11.880;2023-02-27T04:29:13;3.40;;;3.10;;
1382;SDS011;685;47.196;11.880;2023-02-27T04:31:44;3.93;;;2.80;;
1382;SDS011;685;47.196;11.880;2023-02-27T04:34:19;5.43;;;3.00;;
1382;SDS011;685;47.196;11.880;2023-02-27T04:36:50;2.90;;;2.70;;
1382;SDS011;685;47.196;11.880;2023-02-27T04:39:26;2.70;;;2.23;;
1382;SDS011;685;47.196;11.880;2023-02-27T04:41:58;3.27;;;2.97;;
1382;SDS011;685;47.196;11.880;2023-02-27T04:44:27;2.40;;;2.20;;
1382;SDS011;685;47.196;11.880;2023-02-27T04:46:56;2.80;;;2.60;;
1382;SDS011;685;47.196;11.880;2023-02-27T04:49:27;2.60;;;2.40;;
1382;SDS011;685;47.196;11.880;2023-02-27T04:51:57;2.77;;;2.57;;
1382;SDS011;685;47.196;11.880;2023-02-27T04:54:30;2.70;;;2.50;;
1382;SDS011;685;47.196;11.880;2023-02-27T04:57:03;2.90;;;2.70;;
1382;SDS011;685;47.196;11.880;2023-02-27T04:59:34;3.63;;;3.10;;
1382;SDS011;685;47.196;11.880;2023-02-27T05:02:06;2.97;;;2.77;;
1382;SDS011;685;47.196;11.880;2023-02-27T05:04:38;2.80;;;2.57;;
1382;SDS011;685;47.196;11.880;2023-02-27T05:07:09;3.10;;;2.80;;
1382;SDS011;685;47.196;11.880;2023-02-27T05:09:41;3.03;;;2.70;;
1382;SDS011;685;47.196;11.880;2023-02-27T05:12:13;4.63;;;3.27;;
1382;SDS011;685;47.196;11.880;2023-02-27T05:14:46;2.93;;;2.57;;
1382;SDS011;685;47.196;11.880;2023-02-27T05:17:17;3.50;;;2.80;;
1382;SDS011;685;47.196;11.880;2023-02-27T05:19:47;3.80;;;3.27;;
1382;SDS011;685;47.196;11.880;2023-02-27T05:22:18;3.97;;;3.53;;
1382;SDS011;685;47.196;11.880;2023-02-27T05:24:52;4.10;;;3.70;;
1382;SDS011;685;47.196;11.880;2023-02-27T05:27:29;3.00;;;2.63;;
1382;SDS011;685;47.196;11.880;2023-02-27T05:30:00;4.63;;;3.53;;
1382;SDS011;685;47.196;11.880;2023-02-27T05:32:32;5.80;;;4.20;;
1382;SDS011;685;47.196;11.880;2023-02-27T05:35:06;4.57;;;3.60;;
1382;SDS011;685;47.196;11.880;2023-02-27T05:37:40;4.80;;;3.57;;
1382;SDS011;685;47.196;11.880;2023-02-27T05:40:12;6.33;;;3.67;;
1382;SDS011;685;47.196;11.880;2023-02-27T05:42:42;2.93;;;2.70;;
1382;SDS011;685;47.196;11.880;2023-02-27T05:45:16;3.50;;;3.20;;
1382;SDS011;685;47.196;11.880;2023-02-27T05:47:48;4.90;;;4.13;;
1382;SDS011;685;47.196;11.880;2023-02-27T05:50:22;6.60;;;5.37;;
1382;SDS011;685;47.196;11.880;2023-02-27T05:52:53;5.87;;;4.90;;
1382;SDS011;685;47.196;11.880;2023-02-27T05:55:23;4.00;;;3.60;;
1382;SDS011;685;47.196;11.880;2023-02-27T05:57:55;5.27;;;4.60;;
1382;SDS011;685;47.196;11.880;2023-02-27T06:00:28;4.73;;;3.63;;
1382;SDS011;685;47.196;11.880;2023-02-27T06:03:02;5.57;;;4.67;;
1382;SDS011;685;47.196;11.880;2023-02-27T06:05:29;8.83;;;7.10;;
1382;SDS011;685;47.196;11.880;2023-02-27T06:07:56;19.27;;;10.07;;
1382;SDS011;685;47.196;11.880;2023-02-27T06:10:23;27.40;;;16.27;;
1382;SDS011;685;47.196;11.880;2023-02-27T06:12:50;11.80;;;9.20;;
1382;SDS011;685;47.196;11.880;2023-02-27T06:15:18;5.17;;;4.63;;
1382;SDS011;685;47.196;11.880;2023-02-27T06:17:45;3.53;;;3.20;;
1382;SDS011;685;47.196;11.880;2023-02-27T06:20:12;4.30;;;3.50;;
1382;SDS011;685;47.196;11.880;2023-02-27T06:22:39;3.90;;;3.50;;
1382;SDS011;685;47.196;11.880;2023-02-27T06:25:06;4.37;;;3.70;;
1382;SDS011;685;47.196;11.880;2023-02-27T06:27:33;16.40;;;14.70;;
1382;SDS011;685;47.196;11.880;2023-02-27T06:30:00;4.40;;;4.00;;
1382;SDS011;685;47.196;11.880;2023-02-27T06:32:28;6.50;;;3.50;;
1382;SDS011;685;47.196;11.880;2023-02-27T06:34:55;4.90;;;4.00;;
1382;SDS011;685;47.196;11.880;2023-02-27T06:37:22;3.57;;;3.27;;
1382;SDS011;685;47.196;11.880;2023-02-27T06:39:49;4.37;;;3.57;;
1382;SDS011;685;47.196;11.880;2023-02-27T06:42:16;3.90;;;3.40;;
1382;SDS011;685;47.196;11.880;2023-02-27T06:44:43;4.67;;;3.73;;
1382;SDS011;685;47.196;11.880;2023-02-27T06:47:10;6.80;;;4.23;;
1382;SDS011;685;47.196;11.880;2023-02-27T06:49:38;4.80;;;4.30;;
1382;SDS011;685;47.196;11.880;2023-02-27T06:52:05;4.40;;;3.77;;
1382;SDS011;685;47.196;11.880;2023-02-27T06:54:32;4.47;;;3.87;;
1382;SDS011;685;47.196;11.880;2023-02-27T06:57:00;4.57;;;4.17;;
1382;SDS011;685;47.196;11.880;2023-02-27T07:20:02;5.47;;;4.60;;
1382;SDS011;685;47.196;11.880;2023-02-27T07:22:35;9.73;;;8.00;;
1382;SDS011;685;47.196;11.880;2023-02-27T07:25:29;5.93;;;5.40;;
1382;SDS011;685;47.196;11.880;2023-02-27T08:02:10;4.90;;;3.93;;
1382;SDS011;685;47.196;11.880;2023-02-27T08:04:42;4.93;;;4.30;;
1382;SDS011;685;47.196;11.880;2023-02-27T08:07:12;5.23;;;4.37;;
1382;SDS011;685;47.196;11.880;2023-02-27T08:09:46;4.70;;;4.30;;
1382;SDS011;685;47.196;11.880;2023-02-27T08:12:32;4.83;;;3.93;;
1382;SDS011;685;47.196;11.880;2023-02-27T08:15:07;5.63;;;4.80;;
1382;SDS011;685;47.196;11.880;2023-02-27T08:17:47;4.40;;;4.00;;
1382;SDS011;685;47.196;11.880;2023-02-27T08:20:18;5.00;;;4.20;;
1382;SDS011;685;47.196;11.880;2023-02-27T08:22:48;4.97;;;4.57;;
1382;SDS011;685;47.196;11.880;2023-02-27T08:25:21;6.43;;;4.00;;
1382;SDS011;685;47.196;11.880;2023-02-27T08:27:56;6.10;;;4.00;;
1382;SDS011;685;47.196;11.880;2023-02-27T08:30:47;5.20;;;4.70;;
1382;SDS011;685;47.196;11.880;2023-02-27T08:36:56;5.57;;;4.33;;
1382;SDS011;685;47.196;11.880;2023-02-27T08:39:40;5.90;;;4.70;;
1382;SDS011;685;47.196;11.880;2023-02-27T08:42:23;4.50;;;4.10;;
1382;SDS011;685;47.196;11.880;2023-02-27T08:44:58;4.17;;;3.77;;
1382;SDS011;685;47.196;11.880;2023-02-27T08:48:07;3.90;;;3.47;;
1382;SDS011;685;47.196;11.880;2023-02-27T08:51:13;6.50;;;3.70;;
1382;SDS011;685;47.196;11.880;2023-02-27T08:58:08;5.57;;;3.90;;
1382;SDS011;685;47.196;11.880;2023-02-27T09:00:41;4.43;;;3.33;;
1382;SDS011;685;47.196;11.880;2023-02-27T09:03:25;4.00;;;3.70;;
1382;SDS011;685;47.196;11.880;2023-02-27T09:06:09;5.53;;;5.03;;
1382;SDS011;685;47.196;11.880;2023-02-27T09:08:59;4.50;;;4.00;;
1382;SDS011;685;47.196;11.880;2023-02-27T09:25:33;3.93;;;3.60;;
1382;SDS011;685;47.196;11.880;2023-02-27T09:28:12;4.50;;;4.10;;
1382;SDS011;685;47.196;11.880;2023-02-27T09:30:42;5.40;;;3.60;;
1382;SDS011;685;47.196;11.880;2023-02-27T09:33:31;6.63;;;5.80;;
1382;SDS011;685;47.196;11.880;2023-02-27T09:36:42;14.30;;;9.97;;
1382;SDS011;685;47.196;11.880;2023-02-27T09:39:22;4.97;;;4.23;;
1382;SDS011;685;47.196;11.880;2023-02-27T09:42:02;3.47;;;3.17;;
1382;SDS011;685;47.196;11.880;2023-02-27T09:44:40;4.80;;;4.13;;
1382;SDS011;685;47.196;11.880;2023-02-27T09:48:16;8.33;;;4.10;;
1382;SDS011;685;47.196;11.880;2023-02-27T09:54:18;5.00;;;4.30;;
1382;SDS011;685;47.196;11.880;2023-02-27T09:56:57;4.50;;;4.10;;
1382;SDS011;685;47.196;11.880;2023-02-27T10:19:46;3.83;;;3.53;;
1382;SDS011;685;47.196;11.880;2023-02-27T10:22:23;3.43;;;3.13;;
1382;SDS011;685;47.196;11.880;2023-02-27T10:25:02;3.00;;;2.80;;
1382;SDS011;685;47.196;11.880;2023-02-27T10:52:07;6.97;;;3.03;;
1382;SDS011;685;47.196;11.880;2023-02-27T10:54:36;3.77;;;3.10;;
1382;SDS011;685;47.196;11.880;2023-02-27T10:57:05;4.13;;;2.97;;
1382;SDS011;685;47.196;11.880;2023-02-27T10:59:49;9.43;;;5.37;;
1382;SDS011;685;47.196;11.880;2023-02-27T11:02:21;2.93;;;2.57;;
1382;SDS011;685;47.196;11.880;2023-02-27T11:04:51;3.30;;;3.00;;
1382;SDS011;685;47.196;11.880;2023-02-27T11:07:32;5.80;;;3.20;;
1382;SDS011;685;47.196;11.880;2023-02-27T11:10:03;2.83;;;2.63;;
1382;SDS011;685;47.196;11.880;2023-02-27T11:12:41;4.60;;;3.07;;
1382;SDS011;685;47.196;11.880;2023-02-27T11:15:21;2.60;;;1.97;;
1382;SDS011;685;47.196;11.880;2023-02-27T11:17:50;3.13;;;2.83;;
1382;SDS011;685;47.196;11.880;2023-02-27T11:23:09;3.67;;;3.00;;
1382;SDS011;685;47.196;11.880;2023-02-27T11:25:40;4.43;;;2.83;;
1382;SDS011;685;47.196;11.880;2023-02-27T11:28:11;3.87;;;3.33;;
1382;SDS011;685;47.196;11.880;2023-02-27T11:30:41;3.07;;;2.77;;
1382;SDS011;685;47.196;11.880;2023-02-27T11:33:09;3.40;;;3.10;;
1382;SDS011;685;47.196;11.880;2023-02-27T11:35:47;4.20;;;3.00;;
1382;SDS011;685;47.196;11.880;2023-02-27T11:38:19;3.80;;;3.50;;
1382;SDS011;685;47.196;11.880;2023-02-27T11:40:49;4.80;;;4.20;;
1382;SDS011;685;47.196;11.880;2023-02-27T11:43:19;3.83;;;3.43;;
1382;SDS011;685;47.196;11.880;2023-02-27T11:45:49;3.63;;;3.07;;
1382;SDS011;685;47.196;11.880;2023-02-27T11:48:20;4.47;;;3.80;;
1382;SDS011;685;47.196;11.880;2023-02-27T11:53:54;4.20;;;3.23;;
1382;SDS011;685;47.196;11.880;2023-02-27T11:56:34;3.93;;;2.60;;
1382;SDS011;685;47.196;11.880;2023-02-27T11:59:03;4.53;;;3.30;;
1382;SDS011;685;47.196;11.880;2023-02-27T12:01:41;3.27;;;2.50;;
1382;SDS011;685;47.196;11.880;2023-02-27T12:04:15;3.63;;;3.33;;
1382;SDS011;685;47.196;11.880;2023-02-27T12:06:47;4.50;;;3.13;;
1382;SDS011;685;47.196;11.880;2023-02-27T12:09:22;9.70;;;5.47;;
1382;SDS011;685;47.196;11.880;2023-02-27T12:12:01;4.00;;;3.43;;
1382;SDS011;685;47.196;11.880;2023-02-27T12:14:39;2.57;;;1.80;;
1382;SDS011;685;47.196;11.880;2023-02-27T12:17:12;3.97;;;3.43;;
1382;SDS011;685;47.196;11.880;2023-02-27T12:19:48;4.50;;;3.50;;
1382;SDS011;685;47.196;11.880;2023-02-27T12:22:27;3.90;;;3.23;;
1382;SDS011;685;47.196;11.880;2023-02-27T12:24:59;5.40;;;3.80;;
1382;SDS011;685;47.196;11.880;2023-02-27T12:27:32;4.83;;;4.33;;
1382;SDS011;685;47.196;11.880;2023-02-27T12:30:12;3.53;;;2.87;;
1382;SDS011;685;47.196;11.880;2023-02-27T12:32:43;3.50;;;2.80;;
1382;SDS011;685;47.196;11.880;2023-02-27T12:35:15;3.20;;;2.90;;
1382;SDS011;685;47.196;11.880;2023-02-27T12:37:45;4.50;;;3.30;;
1382;SDS011;685;47.196;11.880;2023-02-27T12:40:14;3.90;;;2.87;;
1382;SDS011;685;47.196;11.880;2023-02-27T12:42:52;3.40;;;3.10;;
1382;SDS011;685;47.196;11.880;2023-02-27T12:45:41;3.93;;;2.70;;
1382;SDS011;685;47.196;11.880;2023-02-27T12:48:36;5.10;;;4.17;;
1382;SDS011;685;47.196;11.880;2023-02-27T12:51:26;3.40;;;3.10;;
1382;SDS011;685;47.196;11.880;2023-02-27T12:54:02;3.60;;;3.10;;
1382;SDS011;685;47.196;11.880;2023-02-27T12:56:43;3.50;;;3.20;;
1382;SDS011;685;47.196;11.880;2023-02-27T12:59:21;3.63;;;3.17;;
1382;SDS011;685;47.196;11.880;2023-02-27T13:02:06;3.30;;;2.97;;
1382;SDS011;685;47.196;11.880;2023-02-27T13:04:51;3.30;;;3.00;;
1382;SDS011;685;47.196;11.880;2023-02-27T13:07:27;3.30;;;3.00;;
1382;SDS011;685;47.196;11.880;2023-02-27T13:09:58;3.03;;;2.73;;
1382;SDS011;685;47.196;11.880;2023-02-27T13:12:33;3.53;;;3.10;;
1382;SDS011;685;47.196;11.880;2023-02-27T13:15:03;3.83;;;3.40;;
1382;SDS011;685;47.196;11.880;2023-02-27T13:17:37;3.20;;;2.30;;
1382;SDS011;685;47.196;11.880;2023-02-27T13:20:11;3.47;;;3.17;;
1382;SDS011;685;47.196;11.880;2023-02-27T13:22:52;4.07;;;2.37;;
1382;SDS011;685;47.196;11.880;2023-02-27T13:25:25;3.83;;;3.20;;
1382;SDS011;685;47.196;11.880;2023-02-27T13:27:56;4.20;;;3.20;;
1382;SDS011;685;47.196;11.880;2023-02-27T13:30:28;5.10;;;3.00;;
1382;SDS011;685;47.196;11.880;2023-02-27T13:33:00;3.77;;;3.47;;
1382;SDS011;685;47.196;11.880;2023-02-27T13:35:41;3.50;;;3.20;;
1382;SDS011;685;47.196;11.880;2023-02-27T13:38:30;3.73;;;2.97;;
1382;SDS011;685;47.196;11.880;2023-02-27T13:41:32;2.97;;;2.73;;
1382;SDS011;685;47.196;11.880;2023-02-27T13:50:03;3.23;;;2.93;;
1382;SDS011;685;47.196;11.880;2023-02-27T13:52:51;3.47;;;3.17;;
1382;SDS011;685;47.196;11.880;2023-02-27T13:55:24;2.60;;;2.40;;
1382;SDS011;685;47.196;11.880;2023-02-27T13:57:52;3.60;;;2.33;;
1382;SDS011;685;47.196;11.880;2023-02-27T14:00:24;3.80;;;3.07;;
1382;SDS011;685;47.196;11.880;2023-02-27T14:02:53;4.23;;;2.97;;
1382;SDS011;685;47.196;11.880;2023-02-27T14:05:25;3.20;;;2.80;;
1382;SDS011;685;47.196;11.880;2023-02-27T14:07:59;3.73;;;3.43;;
1382;SDS011;685;47.196;11.880;2023-02-27T14:10:34;3.83;;;2.97;;
1382;SDS011;685;47.196;11.880;2023-02-27T14:13:03;5.73;;;3.37;;
1382;SDS011;685;47.196;11.880;2023-02-27T14:15:48;2.93;;;2.50;;
1382;SDS011;685;47.196;11.880;2023-02-27T14:24:30;3.03;;;2.53;;
1382;SDS011;685;47.196;11.880;2023-02-27T14:27:02;4.87;;;2.80;;
1382;SDS011;685;47.196;11.880;2023-02-27T14:29:31;2.73;;;2.40;;
1382;SDS011;685;47.196;11.880;2023-02-27T14:32:00;3.80;;;3.17;;
1382;SDS011;685;47.196;11.880;2023-02-27T14:34:30;3.80;;;2.80;;
1382;SDS011;685;47.196;11.880;2023-02-27T14:37:00;5.70;;;3.13;;
1382;SDS011;685;47.196;11.880;2023-02-27T14:39:32;2.90;;;2.63;;
1382;SDS011;685;47.196;11.880;2023-02-27T14:42:07;3.13;;;2.80;;
1382;SDS011;685;47.196;11.880;2023-02-27T14:44:55;4.40;;;2.87;;
1382;SDS011;685;47.196;11.880;2023-02-27T14:47:24;4.70;;;2.80;;
1382;SDS011;685;47.196;11.880;2023-02-27T14:49:54;3.77;;;2.83;;
1382;SDS011;685;47.196;11.880;2023-02-27T14:52:22;3.87;;;2.87;;
1382;SDS011;685;47.196;11.880;2023-02-27T14:54:51;3.00;;;2.70;;
1382;SDS011;685;47.196;11.880;2023-02-27T14:57:19;3.53;;;2.53;;
1382;SDS011;685;47.196;11.880;2023-02-27T14:59:47;5.37;;;3.30;;
1382;SDS011;685;47.196;11.880;2023-02-27T15:02:17;2.93;;;2.67;;
1382;SDS011;685;47.196;11.880;2023-02-27T15:04:51;3.53;;;3.00;;
1382;SDS011;685;47.196;11.880;2023-02-27T15:07:39;3.23;;;2.93;;
1382;SDS011;685;47.196;11.880;2023-02-27T15:10:09;3.60;;;3.10;;
1382;SDS011;685;47.196;11.880;2023-02-27T15:12:47;3.87;;;2.60;;
1382;SDS011;685;47.196;11.880;2023-02-27T15:15:16;3.43;;;2.70;;
1382;SDS011;685;47.196;11.880;2023-02-27T15:17:45;4.43;;;3.40;;
1382;SDS011;685;47.196;11.880;2023-02-27T15:23:00;3.43;;;3.13;;
1382;SDS011;685;47.196;11.880;2023-02-27T15:25:44;3.13;;;2.60;;
1382;SDS011;685;47.196;11.880;2023-02-27T15:28:14;3.30;;;3.00;;
1382;SDS011;685;47.196;11.880;2023-02-27T15:30:46;3.33;;;2.70;;
1382;SDS011;685;47.196;11.880;2023-02-27T15:33:13;6.30;;;4.10;;
1382;SDS011;685;47.196;11.880;2023-02-27T15:35:43;3.27;;;2.93;;
1382;SDS011;685;47.196;11.880;2023-02-27T15:38:22;3.80;;;2.90;;
1382;SDS011;685;47.196;11.880;2023-02-27T15:40:51;3.03;;;2.73;;
1382;SDS011;685;47.196;11.880;2023-02-27T15:43:18;4.20;;;3.23;;
1382;SDS011;685;47.196;11.880;2023-02-27T15:45:47;3.70;;;2.73;;
1382;SDS011;685;47.196;11.880;2023-02-27T15:48:15;4.40;;;2.77;;
1382;SDS011;685;47.196;11.880;2023-02-27T15:50:44;5.30;;;3.33;;
1382;SDS011;685;47.196;11.880;2023-02-27T15:53:14;4.30;;;3.03;;
1382;SDS011;685;47.196;11.880;2023-02-27T15:55:44;3.37;;;2.60;;
1382;SDS011;685;47.196;11.880;2023-02-27T15:58:17;2.90;;;2.70;;
1382;SDS011;685;47.196;11.880;2023-02-27T16:00:49;3.37;;;3.07;;
1382;SDS011;685;47.196;11.880;2023-02-27T16:03:23;3.80;;;2.80;;
1382;SDS011;685;47.196;11.880;2023-02-27T16:05:56;7.73;;;3.50;;
1382;SDS011;685;47.196;11.880;2023-02-27T16:08:23;3.50;;;2.90;;
1382;SDS011;685;47.196;11.880;2023-02-27T16:10:50;4.40;;;3.87;;
1382;SDS011;685;47.196;11.880;2023-02-27T16:13:21;4.90;;;2.80;;
1382;SDS011;685;47.196;11.880;2023-02-27T16:15:59;3.80;;;2.70;;
1382;SDS011;685;47.196;11.880;2023-02-27T16:18:28;4.23;;;3.83;;
1382;SDS011;685;47.196;11.880;2023-02-27T16:21:09;3.90;;;3.27;;
1382;SDS011;685;47.196;11.880;2023-02-27T16:23:37;4.37;;;3.97;;
1382;SDS011;685;47.196;11.880;2023-02-27T16:26:05;2.77;;;2.50;;
1382;SDS011;685;47.196;11.880;2023-02-27T16:28:49;2.87;;;2.57;;
1382;SDS011;685;47.196;11.880;2023-02-27T16:31:21;4.00;;;3.00;;
1382;SDS011;685;47.196;11.880;2023-02-27T16:33:50;3.80;;;3.50;;
1382;SDS011;685;47.196;11.880;2023-02-27T16:36:20;12.10;;;9.53;;
1382;SDS011;685;47.196;11.880;2023-02-27T16:38:49;6.43;;;5.73;;
1382;SDS011;685;47.196;11.880;2023-02-27T16:41:17;3.97;;;3.27;;
1382;SDS011;685;47.196;11.880;2023-02-27T16:43:45;4.23;;;3.83;;
1382;SDS011;685;47.196;11.880;2023-02-27T16:46:14;4.83;;;4.33;;
1382;SDS011;685;47.196;11.880;2023-02-27T16:48:45;3.07;;;2.77;;
1382;SDS011;685;47.196;11.880;2023-02-27T16:51:15;4.23;;;3.77;;
1382;SDS011;685;47.196;11.880;2023-02-27T16:53:47;4.07;;;3.67;;
1382;SDS011;685;47.196;11.880;2023-02-27T16:56:15;5.10;;;4.70;;
1382;SDS011;685;47.196;11.880;2023-02-27T16:58:43;4.50;;;3.30;;
1382;SDS011;685;47.196;11.880;2023-02-27T17:01:11;5.43;;;3.50;;
1382;SDS011;685;47.196;11.880;2023-02-27T17:03:39;4.17;;;3.77;;
1382;SDS011;685;47.196;11.880;2023-02-27T17:08:35;4.20;;;3.80;;
1382;SDS011;685;47.196;11.880;2023-02-27T17:11:03;3.87;;;3.50;;
1382;SDS011;685;47.196;11.880;2023-02-27T17:13:31;5.80;;;4.10;;
1382;SDS011;685;47.196;11.880;2023-02-27T17:15:59;4.30;;;3.90;;
1382;SDS011;685;47.196;11.880;2023-02-27T17:18:26;7.77;;;3.80;;
1382;SDS011;685;47.196;11.880;2023-02-27T17:20:53;5.10;;;3.77;;
1382;SDS011;685;47.196;11.880;2023-02-27T17:23:21;5.03;;;4.37;;
1382;SDS011;685;47.196;11.880;2023-02-27T17:25:50;5.20;;;4.50;;
1382;SDS011;685;47.196;11.880;2023-02-27T17:28:20;11.07;;;7.90;;
1382;SDS011;685;47.196;11.880;2023-02-27T17:30:48;11.30;;;7.07;;
1382;SDS011;685;47.196;11.880;2023-02-27T17:33:16;16.77;;;8.97;;
1382;SDS011;685;47.196;11.880;2023-02-27T17:35:43;6.60;;;5.83;;
1382;SDS011;685;47.196;11.880;2023-02-27T17:38:10;6.13;;;4.17;;
1382;SDS011;685;47.196;11.880;2023-02-27T17:40:37;11.20;;;5.87;;
1382;SDS011;685;47.196;11.880;2023-02-27T17:43:04;6.97;;;4.80;;
1382;SDS011;685;47.196;11.880;2023-02-27T17:45:32;11.73;;;5.57;;
1382;SDS011;685;47.196;11.880;2023-02-27T17:47:59;6.27;;;4.97;;
1382;SDS011;685;47.196;11.880;2023-02-27T17:50:26;5.27;;;4.77;;
1382;SDS011;685;47.196;11.880;2023-02-27T17:52:53;4.27;;;3.87;;
1382;SDS011;685;47.196;11.880;2023-02-27T17:55:19;11.53;;;9.20;;
1382;SDS011;685;47.196;11.880;2023-02-27T17:57:46;9.17;;;6.63;;
1382;SDS011;685;47.196;11.880;2023-02-27T18:00:13;5.50;;;4.53;;
1382;SDS011;685;47.196;11.880;2023-02-27T18:02:43;6.23;;;4.90;;
1382;SDS011;685;47.196;11.880;2023-02-27T18:05:10;4.70;;;3.50;;
1382;SDS011;685;47.196;11.880;2023-02-27T18:07:37;4.00;;;3.60;;
1382;SDS011;685;47.196;11.880;2023-02-27T18:10:05;4.60;;;4.20;;
1382;SDS011;685;47.196;11.880;2023-02-27T18:12:35;3.90;;;3.50;;
1382;SDS011;685;47.196;11.880;2023-02-27T18:15:04;5.43;;;4.13;;
1382;SDS011;685;47.196;11.880;2023-02-27T18:17:31;3.67;;;3.27;;
1382;SDS011;685;47.196;11.880;2023-02-27T18:20:00;5.43;;;4.27;;
1382;SDS011;685;47.196;11.880;2023-02-27T18:22:29;5.13;;;4.47;;